Terminal Aerodrome Forecast
Issued by NWS Billings, MT

Home | Current Version | Previous Version | Text Only | Print | Product List | Glossary On
Versions: 1 2 3 4 5 6 7 8 9 10 11 12 13 14 15 16 17 18 19 20 21 22 23 24 25 26
000
FTUS45 KBYZ 182032 AAA
TAFBIL
TAF AMD
KBIL 182032Z 1821/1918 25015KT P6SM FEW250
     FM190200 24008KT P6SM SCT250
     FM190700 24006KT 5SM FU SCT250=

USA.gov is the U.S. government's official web portal to all federal, state and local government web resources and services.